Nepheli — 3FNC5 — position and weather

sailwx.info

Track history (hours):
 
Tides and Currents Weather Stations Pressure Air Temp Water Temp Dewpoint Dewpoint Depression Visibility Wind Speed Wind Dir Waves Ship Positions

Nepheli

Last reported at 2016-Jul-13 10:33 UTC. Time now 2016-Jul-29 19:48 UTC.
Position N 37°37' E 023°44'.
Warning: this ship's position is 16 days out of date.

Length 90 m; draft 5.3 m.

Type: Tanker. MMSI: 370679000.

Date/timePositionNaut miles runAvg speedWind from/ knotsBaromVisibWave heightAir tempDewpointWater temp
2016-Jul-13 10:33N 37°37' E 023°44'8 7.7
2016-Jul-13 09:33N 37°43' E 023°39'8 7.9
2016-Jul-13 08:33N 37°51' E 023°35'5 4.7
2016-Jul-13 07:31N 37°55' E 023°33'0 0.1
2016-Jul-13 06:31N 37°55' E 023°33'0 0.0
2016-Jul-13 05:31N 37°55' E 023°33'0 0.0
2016-Jul-13 04:31N 37°55' E 023°33'0 0.0
2016-Jul-13 03:31N 37°55' E 023°33'0 0.0
2016-Jul-13 02:31N 37°55' E 023°33'0 0.0
2016-Jul-13 01:31N 37°55' E 023°33'0 0.0
2016-Jul-13 00:31N 37°55' E 023°33'0 0.0
2016-Jul-12 23:28N 37°55' E 023°33'0 0.0
2016-Jul-12 22:28N 37°55' E 023°33'0 0.0
2016-Jul-12 21:31N 37°55' E 023°33'0 0.0
2016-Jul-12 20:31N 37°55' E 023°33'0 0.0
2016-Jul-12 19:31N 37°55' E 023°33'0 0.0
2016-Jul-12 18:31N 37°55' E 023°33'0 0.0
2016-Jul-12 17:31N 37°55' E 023°33'0 0.0
2016-Jul-12 16:31N 37°55' E 023°33'0 0.0
2016-Jul-12 15:33N 37°55' E 023°33'5 5.0
2016-Jul-12 14:33N 37°52' E 023°28'18 1.5
2016-Jul-12 02:11N 37°55' E 023°05'0 0.0
2016-Jul-12 01:29N 37°55' E 023°05'0 0.0
2016-Jul-12 00:11N 37°55' E 023°05'0 0.0
2016-Jul-11 21:17N 37°55' E 023°05'0 0.0
2016-Jul-11 19:23N 37°55' E 023°05'1 0.2
2016-Jul-11 16:29N 37°54' E 023°05'1 0.2
2016-Jul-11 11:31N 37°54' E 023°07'8 7.5
2016-Jul-11 10:25N 37°52' E 023°17'8 8.8
2016-Jul-11 09:33N 37°51' E 023°26'8 7.8
2016-Jul-11 08:33N 37°54' E 023°35'3 3.1
2016-Jul-11 07:31N 37°57' E 023°33'0 0.0
2016-Jul-11 06:31N 37°57' E 023°33'0 0.0
2016-Jul-11 04:31N 37°57' E 023°33'0 0.0
2016-Jul-11 03:31N 37°57' E 023°33'0 0.0
2016-Jul-11 02:31N 37°57' E 023°33'0 0.0
2016-Jul-11 01:31N 37°57' E 023°33'0 0.0
2016-Jul-11 00:31N 37°57' E 023°33'0 0.0
2016-Jul-10 23:31N 37°57' E 023°33'0 0.0
2016-Jul-10 22:31N 37°57' E 023°33'0 0.0
2016-Jul-10 21:31N 37°57' E 023°33'0 0.0
2016-Jul-10 20:31N 37°57' E 023°33'0 0.0
2016-Jul-10 19:31N 37°57' E 023°33'0 0.0
2016-Jul-10 18:33N 37°57' E 023°33'0 0.0
2016-Jul-10 17:33N 37°57' E 023°33'0 0.0
2016-Jul-10 16:33N 37°57' E 023°33'0 0.0
2016-Jul-10 15:33N 37°57' E 023°33'0 0.0
2016-Jul-10 14:33N 37°57' E 023°33'0 0.0
2016-Jul-10 13:33N 37°57' E 023°33'0 0.0
2016-Jul-10 12:31N 37°57' E 023°33'0 0.0
2016-Jul-10 11:31N 37°57' E 023°33'0 0.0
2016-Jul-10 10:31N 37°57' E 023°33'0 0.0
2016-Jul-10 09:31N 37°57' E 023°33'0 0.0
2016-Jul-10 08:31N 37°57' E 023°33'0 0.0
2016-Jul-10 07:31N 37°57' E 023°33'0 0.0
2016-Jul-10 06:31N 37°57' E 023°33'0 0.0
2016-Jul-10 05:31N 37°57' E 023°33'0 0.0
2016-Jul-10 04:31N 37°57' E 023°33'0 0.0
2016-Jul-10 03:31N 37°57' E 023°33'0 0.0
2016-Jul-10 02:31N 37°57' E 023°33'0 0.0
2016-Jul-10 01:31N 37°57' E 023°33'0 0.0
2016-Jul-10 00:31N 37°57' E 023°33'0 0.0
2016-Jul-09 23:31N 37°57' E 023°33'0 0.0
2016-Jul-09 22:31N 37°57' E 023°33'0 0.0
2016-Jul-09 21:31N 37°57' E 023°33'0 0.0
2016-Jul-09 20:31N 37°57' E 023°33'0 0.0
2016-Jul-09 19:31N 37°57' E 023°33'0 0.0
2016-Jul-09 18:31N 37°57' E 023°33'0 0.0
2016-Jul-09 17:31N 37°57' E 023°33'0 0.0
2016-Jul-09 16:31N 37°57' E 023°33'0 0.0
2016-Jul-09 15:31N 37°57' E 023°33'0 0.0
2016-Jul-09 14:31N 37°57' E 023°33'0 0.0
2016-Jul-09 13:25N 37°57' E 023°33'0 0.0
2016-Jul-09 12:31N 37°57' E 023°33'0 0.0
2016-Jul-09 11:31N 37°57' E 023°33'0 0.0
2016-Jul-09 10:31N 37°57' E 023°33'0 0.0
2016-Jul-09 09:31N 37°57' E 023°33'0 0.0
2016-Jul-09 08:31N 37°57' E 023°33'0 0.0
2016-Jul-09 07:31N 37°57' E 023°33'0 0.0
2016-Jul-09 06:31N 37°57' E 023°33'0 0.0
2016-Jul-09 04:31N 37°57' E 023°33'0 0.0
2016-Jul-09 03:31N 37°57' E 023°33'0 0.0
2016-Jul-09 02:31N 37°57' E 023°33'0 0.0
2016-Jul-09 01:31N 37°57' E 023°33'0 0.0
2016-Jul-09 00:31N 37°57' E 023°33'0 0.0
2016-Jul-08 23:31N 37°57' E 023°33'0 0.0
2016-Jul-08 22:31N 37°57' E 023°33'0 0.0
2016-Jul-08 21:31N 37°57' E 023°33'0 0.0
2016-Jul-08 20:31N 37°57' E 023°33'0 0.0
2016-Jul-08 19:31N 37°57' E 023°33'0 0.0
2016-Jul-08 18:31N 37°57' E 023°33'0 0.0
2016-Jul-08 17:31N 37°57' E 023°33'0 0.0
2016-Jul-08 16:31N 37°57' E 023°33'0 0.0
2016-Jul-08 15:31N 37°57' E 023°33'0 0.0
2016-Jul-08 14:31N 37°57' E 023°33'0 0.0
2016-Jul-08 13:28N 37°57' E 023°33'0 0.0
2016-Jul-08 12:31N 37°57' E 023°33'0 0.0
2016-Jul-08 11:31N 37°57' E 023°33'0 0.0
2016-Jul-08 10:31N 37°57' E 023°33'0 0.0
2016-Jul-08 09:31N 37°57' E 023°33'0 0.0
2016-Jul-08 08:31N 37°57' E 023°33'0 0.0
2016-Jul-08 07:31N 37°57' E 023°33'0 0.0
2016-Jul-08 06:31N 37°57' E 023°33'0 0.0
2016-Jul-08 04:31N 37°57' E 023°33'0 0.0
2016-Jul-08 03:31N 37°57' E 023°33'0 0.0
2016-Jul-08 02:31N 37°57' E 023°33'0 0.0
2016-Jul-08 01:31N 37°57' E 023°33'0 0.0
2016-Jul-08 00:31N 37°57' E 023°33'0 0.0
2016-Jul-07 23:31N 37°57' E 023°33'0 0.0
2016-Jul-07 22:31N 37°57' E 023°33'0 0.0
2016-Jul-07 21:31N 37°57' E 023°33'0 0.0
2016-Jul-07 20:31N 37°57' E 023°33'0 0.0
2016-Jul-07 19:31N 37°57' E 023°33'0 0.0
2016-Jul-07 18:31N 37°57' E 023°33'0 0.0
2016-Jul-07 17:31N 37°57' E 023°33'0 0.0
2016-Jul-07 16:31N 37°57' E 023°33'0 0.0
2016-Jul-07 15:31N 37°57' E 023°33'0 0.0
2016-Jul-07 14:31N 37°57' E 023°33'0 0.0
2016-Jul-07 13:31N 37°57' E 023°33'0 0.0
2016-Jul-07 12:31N 37°57' E 023°33'0 0.0
2016-Jul-07 11:31N 37°57' E 023°33'0 0.0
2016-Jul-07 10:31N 37°57' E 023°33'0 0.0
2016-Jul-07 09:31N 37°57' E 023°33'0 0.0
2016-Jul-07 08:31N 37°57' E 023°33'0 0.0
2016-Jul-07 07:31N 37°57' E 023°33'0 0.0
2016-Jul-07 06:31N 37°57' E 023°33'0 0.0
2016-Jul-07 05:31N 37°57' E 023°33'0 0.0
2016-Jul-07 04:31N 37°57' E 023°33'0 0.0
2016-Jul-07 03:31N 37°57' E 023°33'0 0.0
2016-Jul-07 02:31N 37°57' E 023°33'0 0.0
2016-Jul-07 01:31N 37°57' E 023°33'0 0.0
2016-Jul-07 00:31N 37°57' E 023°33'0 0.0
2016-Jul-06 23:31N 37°57' E 023°33'0 0.0
2016-Jul-06 22:31N 37°57' E 023°33'0 0.0
2016-Jul-06 21:31N 37°57' E 023°33'0 0.0
2016-Jul-06 20:31N 37°57' E 023°33'0 0.0
2016-Jul-06 19:31N 37°57' E 023°33'0 0.0
2016-Jul-06 18:31N 37°57' E 023°33'0 0.0
2016-Jul-06 17:31N 37°57' E 023°33'0 0.0
2016-Jul-06 16:31N 37°57' E 023°33'0 0.0
2016-Jul-06 15:31N 37°57' E 023°33'0 0.0
2016-Jul-06 14:31N 37°57' E 023°33'0 0.0
2016-Jul-06 13:31N 37°57' E 023°33'0 0.0
2016-Jul-06 12:31N 37°57' E 023°33'0 0.0
2016-Jul-06 11:31N 37°57' E 023°33'0 0.0
2016-Jul-06 10:28N 37°57' E 023°33'0 0.0
2016-Jul-06 09:31N 37°57' E 023°33'0 0.0
2016-Jul-06 08:31N 37°57' E 023°33'0 0.0
2016-Jul-06 07:31N 37°57' E 023°33'0 0.0
2016-Jul-06 06:31N 37°57' E 023°33'0 0.0
2016-Jul-06 05:31N 37°57' E 023°33'0 0.0
2016-Jul-06 04:31N 37°57' E 023°33'0 0.0
2016-Jul-06 03:31N 37°57' E 023°33'0 0.0
2016-Jul-06 02:31N 37°57' E 023°33'0 0.0
2016-Jul-06 01:31N 37°57' E 023°33'0 0.0
2016-Jul-06 00:31N 37°57' E 023°33'0 0.0
2016-Jul-05 23:31N 37°57' E 023°33'0 0.0
2016-Jul-05 22:31N 37°57' E 023°33'0 0.0
2016-Jul-05 21:31N 37°57' E 023°33'0 0.0
2016-Jul-05 20:31N 37°57' E 023°33'0 0.0
2016-Jul-05 19:31N 37°57' E 023°33'0 0.0
2016-Jul-05 18:31N 37°57' E 023°33'0 0.0
2016-Jul-05 17:31N 37°57' E 023°33'0 0.0
2016-Jul-05 16:28N 37°57' E 023°33'0 0.0
2016-Jul-05 15:31N 37°57' E 023°33'0 0.0
2016-Jul-05 14:31N 37°57' E 023°33'0 0.0
2016-Jul-05 13:31N 37°57' E 023°33'0 0.0
2016-Jul-05 12:31N 37°57' E 023°33'0 0.0
2016-Jul-05 11:28N 37°57' E 023°33'0 0.0
2016-Jul-05 10:31N 37°57' E 023°33'0 0.0
2016-Jul-05 09:31N 37°57' E 023°33'0 0.0
2016-Jul-05 08:31N 37°57' E 023°33'0 0.0
2016-Jul-05 07:33N 37°57' E 023°33'1 1.2
2016-Jul-05 06:34N 37°57' E 023°34'3 1.5
2016-Jul-05 04:32N 37°54' E 023°34'0 0.0
2016-Jul-05 03:32N 37°54' E 023°34'0 0.0
2016-Jul-05 02:32N 37°54' E 023°34'0 0.0
2016-Jul-05 01:32N 37°54' E 023°34'0 0.0
2016-Jul-05 00:32N 37°54' E 023°34'0 0.0
2016-Jul-04 23:31N 37°54' E 023°34'0 0.0
2016-Jul-04 22:31N 37°54' E 023°34'0 0.0
2016-Jul-04 21:34N 37°54' E 023°34'0 0.0
2016-Jul-04 20:31N 37°54' E 023°34'0 0.0
2016-Jul-04 19:31N 37°54' E 023°34'0 0.0
2016-Jul-04 18:31N 37°54' E 023°34'0 0.0
2016-Jul-04 17:31N 37°54' E 023°34'0 0.0
2016-Jul-04 16:31N 37°54' E 023°34'0 0.0
2016-Jul-04 15:31N 37°54' E 023°34'0 0.0
2016-Jul-04 14:31N 37°54' E 023°34'0 0.0
2016-Jul-04 13:31N 37°54' E 023°34'0 0.0
2016-Jul-04 12:31N 37°54' E 023°34'0 0.0
2016-Jul-04 11:31N 37°54' E 023°34'0 0.0
2016-Jul-04 10:31N 37°54' E 023°34'0 0.0
2016-Jul-04 09:28N 37°54' E 023°34'0 0.0
2016-Jul-04 08:10N 37°54' E 023°34'0 0.0
2016-Jul-04 06:16N 37°54' E 023°34'0 0.0
2016-Jul-04 05:31N 37°54' E 023°34'0 0.0
2016-Jul-04 04:31N 37°54' E 023°34'0 0.0
2016-Jul-04 03:31N 37°54' E 023°34'0 0.0
2016-Jul-04 02:31N 37°54' E 023°34'0 0.0
2016-Jul-04 01:31N 37°54' E 023°34'0 0.0
2016-Jul-04 00:31N 37°54' E 023°34'0 0.0
2016-Jul-03 23:31N 37°54' E 023°34'0 0.0
2016-Jul-03 22:32N 37°54' E 023°34'0 0.0
2016-Jul-03 21:32N 37°54' E 023°34'0 0.1
2016-Jul-03 20:32N 37°54' E 023°34'0 0.0
2016-Jul-03 19:32N 37°54' E 023°34'0 0.0
2016-Jul-03 18:32N 37°54' E 023°34'0 0.0
2016-Jul-03 17:32N 37°54' E 023°34'0 0.0
2016-Jul-03 16:32N 37°54' E 023°34'0 0.0
2016-Jul-03 15:32N 37°54' E 023°34'0 0.0
2016-Jul-03 14:32N 37°54' E 023°34'0 0.0
2016-Jul-03 13:32N 37°54' E 023°34'0 0.0
2016-Jul-03 12:32N 37°54' E 023°34'0 0.1
2016-Jul-03 11:32N 37°54' E 023°34'  
Track history (hours):
 
Tides and Currents Weather Stations Pressure Air Temp Water Temp Dewpoint Dewpoint Depression Visibility Wind Speed Wind Dir Waves Ship Positions

Nepheli

Last reported at 2016-Jul-13 10:33 UTC. Time now 2016-Jul-29 19:48 UTC.
Position N 37°37' E 023°44'.
Warning: this ship's position is 16 days out of date.

Length 90 m; draft 5.3 m.

Type: Tanker. MMSI: 370679000.

Date/timePositionNaut miles runAvg speedWind from/ knotsBaromVisibWave heightAir tempDewpointWater temp
2016-Jul-13 10:33N 37°37' E 023°44'8 7.7
2016-Jul-13 09:33N 37°43' E 023°39'8 7.9
2016-Jul-13 08:33N 37°51' E 023°35'5 4.7
2016-Jul-13 07:31N 37°55' E 023°33'0 0.1
2016-Jul-13 06:31N 37°55' E 023°33'0 0.0
2016-Jul-13 05:31N 37°55' E 023°33'0 0.0
2016-Jul-13 04:31N 37°55' E 023°33'0 0.0
2016-Jul-13 03:31N 37°55' E 023°33'0 0.0
2016-Jul-13 02:31N 37°55' E 023°33'0 0.0
2016-Jul-13 01:31N 37°55' E 023°33'0 0.0
2016-Jul-13 00:31N 37°55' E 023°33'0 0.0
2016-Jul-12 23:28N 37°55' E 023°33'0 0.0
2016-Jul-12 22:28N 37°55' E 023°33'0 0.0
2016-Jul-12 21:31N 37°55' E 023°33'0 0.0
2016-Jul-12 20:31N 37°55' E 023°33'0 0.0
2016-Jul-12 19:31N 37°55' E 023°33'0 0.0
2016-Jul-12 18:31N 37°55' E 023°33'0 0.0
2016-Jul-12 17:31N 37°55' E 023°33'0 0.0
2016-Jul-12 16:31N 37°55' E 023°33'0 0.0
2016-Jul-12 15:33N 37°55' E 023°33'5 5.0
2016-Jul-12 14:33N 37°52' E 023°28'18 1.5
2016-Jul-12 02:11N 37°55' E 023°05'0 0.0
2016-Jul-12 01:29N 37°55' E 023°05'0 0.0
2016-Jul-12 00:11N 37°55' E 023°05'0 0.0
2016-Jul-11 21:17N 37°55' E 023°05'0 0.0
2016-Jul-11 19:23N 37°55' E 023°05'1 0.2
2016-Jul-11 16:29N 37°54' E 023°05'1 0.2
2016-Jul-11 11:31N 37°54' E 023°07'8 7.5
2016-Jul-11 10:25N 37°52' E 023°17'8 8.8
2016-Jul-11 09:33N 37°51' E 023°26'8 7.8
2016-Jul-11 08:33N 37°54' E 023°35'3 3.1
2016-Jul-11 07:31N 37°57' E 023°33'0 0.0
2016-Jul-11 06:31N 37°57' E 023°33'0 0.0
2016-Jul-11 04:31N 37°57' E 023°33'0 0.0
2016-Jul-11 03:31N 37°57' E 023°33'0 0.0
2016-Jul-11 02:31N 37°57' E 023°33'0 0.0
2016-Jul-11 01:31N 37°57' E 023°33'0 0.0
2016-Jul-11 00:31N 37°57' E 023°33'0 0.0
2016-Jul-10 23:31N 37°57' E 023°33'0 0.0
2016-Jul-10 22:31N 37°57' E 023°33'0 0.0
2016-Jul-10 21:31N 37°57' E 023°33'0 0.0
2016-Jul-10 20:31N 37°57' E 023°33'0 0.0
2016-Jul-10 19:31N 37°57' E 023°33'0 0.0
2016-Jul-10 18:33N 37°57' E 023°33'0 0.0
2016-Jul-10 17:33N 37°57' E 023°33'0 0.0
2016-Jul-10 16:33N 37°57' E 023°33'0 0.0
2016-Jul-10 15:33N 37°57' E 023°33'0 0.0
2016-Jul-10 14:33N 37°57' E 023°33'0 0.0
2016-Jul-10 13:33N 37°57' E 023°33'0 0.0
2016-Jul-10 12:31N 37°57' E 023°33'0 0.0
2016-Jul-10 11:31N 37°57' E 023°33'0 0.0
2016-Jul-10 10:31N 37°57' E 023°33'0 0.0
2016-Jul-10 09:31N 37°57' E 023°33'0 0.0
2016-Jul-10 08:31N 37°57' E 023°33'0 0.0
2016-Jul-10 07:31N 37°57' E 023°33'0 0.0
2016-Jul-10 06:31N 37°57' E 023°33'0 0.0
2016-Jul-10 05:31N 37°57' E 023°33'0 0.0
2016-Jul-10 04:31N 37°57' E 023°33'0 0.0
2016-Jul-10 03:31N 37°57' E 023°33'0 0.0
2016-Jul-10 02:31N 37°57' E 023°33'0 0.0
2016-Jul-10 01:31N 37°57' E 023°33'0 0.0
2016-Jul-10 00:31N 37°57' E 023°33'0 0.0
2016-Jul-09 23:31N 37°57' E 023°33'0 0.0
2016-Jul-09 22:31N 37°57' E 023°33'0 0.0
2016-Jul-09 21:31N 37°57' E 023°33'0 0.0
2016-Jul-09 20:31N 37°57' E 023°33'0 0.0
2016-Jul-09 19:31N 37°57' E 023°33'0 0.0
2016-Jul-09 18:31N 37°57' E 023°33'0 0.0
2016-Jul-09 17:31N 37°57' E 023°33'0 0.0
2016-Jul-09 16:31N 37°57' E 023°33'0 0.0
2016-Jul-09 15:31N 37°57' E 023°33'0 0.0
2016-Jul-09 14:31N 37°57' E 023°33'0 0.0
2016-Jul-09 13:25N 37°57' E 023°33'0 0.0
2016-Jul-09 12:31N 37°57' E 023°33'0 0.0
2016-Jul-09 11:31N 37°57' E 023°33'0 0.0
2016-Jul-09 10:31N 37°57' E 023°33'0 0.0
2016-Jul-09 09:31N 37°57' E 023°33'0 0.0
2016-Jul-09 08:31N 37°57' E 023°33'0 0.0
2016-Jul-09 07:31N 37°57' E 023°33'0 0.0
2016-Jul-09 06:31N 37°57' E 023°33'0 0.0
2016-Jul-09 04:31N 37°57' E 023°33'0 0.0
2016-Jul-09 03:31N 37°57' E 023°33'0 0.0
2016-Jul-09 02:31N 37°57' E 023°33'0 0.0
2016-Jul-09 01:31N 37°57' E 023°33'0 0.0
2016-Jul-09 00:31N 37°57' E 023°33'0 0.0
2016-Jul-08 23:31N 37°57' E 023°33'0 0.0
2016-Jul-08 22:31N 37°57' E 023°33'0 0.0
2016-Jul-08 21:31N 37°57' E 023°33'0 0.0
2016-Jul-08 20:31N 37°57' E 023°33'0 0.0
2016-Jul-08 19:31N 37°57' E 023°33'0 0.0
2016-Jul-08 18:31N 37°57' E 023°33'0 0.0
2016-Jul-08 17:31N 37°57' E 023°33'0 0.0
2016-Jul-08 16:31N 37°57' E 023°33'0 0.0
2016-Jul-08 15:31N 37°57' E 023°33'0 0.0
2016-Jul-08 14:31N 37°57' E 023°33'0 0.0
2016-Jul-08 13:28N 37°57' E 023°33'0 0.0
2016-Jul-08 12:31N 37°57' E 023°33'0 0.0
2016-Jul-08 11:31N 37°57' E 023°33'0 0.0
2016-Jul-08 10:31N 37°57' E 023°33'0 0.0
2016-Jul-08 09:31N 37°57' E 023°33'0 0.0
2016-Jul-08 08:31N 37°57' E 023°33'0 0.0
2016-Jul-08 07:31N 37°57' E 023°33'0 0.0
2016-Jul-08 06:31N 37°57' E 023°33'0 0.0
2016-Jul-08 04:31N 37°57' E 023°33'0 0.0
2016-Jul-08 03:31N 37°57' E 023°33'0 0.0
2016-Jul-08 02:31N 37°57' E 023°33'0 0.0
2016-Jul-08 01:31N 37°57' E 023°33'0 0.0
2016-Jul-08 00:31N 37°57' E 023°33'0 0.0
2016-Jul-07 23:31N 37°57' E 023°33'0 0.0
2016-Jul-07 22:31N 37°57' E 023°33'0 0.0
2016-Jul-07 21:31N 37°57' E 023°33'0 0.0
2016-Jul-07 20:31N 37°57' E 023°33'0 0.0
2016-Jul-07 19:31N 37°57' E 023°33'0 0.0
2016-Jul-07 18:31N 37°57' E 023°33'0 0.0
2016-Jul-07 17:31N 37°57' E 023°33'0 0.0
2016-Jul-07 16:31N 37°57' E 023°33'0 0.0
2016-Jul-07 15:31N 37°57' E 023°33'0 0.0
2016-Jul-07 14:31N 37°57' E 023°33'0 0.0
2016-Jul-07 13:31N 37°57' E 023°33'0 0.0
2016-Jul-07 12:31N 37°57' E 023°33'0 0.0
2016-Jul-07 11:31N 37°57' E 023°33'0 0.0
2016-Jul-07 10:31N 37°57' E 023°33'0 0.0
2016-Jul-07 09:31N 37°57' E 023°33'0 0.0
2016-Jul-07 08:31N 37°57' E 023°33'0 0.0
2016-Jul-07 07:31N 37°57' E 023°33'0 0.0
2016-Jul-07 06:31N 37°57' E 023°33'0 0.0
2016-Jul-07 05:31N 37°57' E 023°33'0 0.0
2016-Jul-07 04:31N 37°57' E 023°33'0 0.0
2016-Jul-07 03:31N 37°57' E 023°33'0 0.0
2016-Jul-07 02:31N 37°57' E 023°33'0 0.0
2016-Jul-07 01:31N 37°57' E 023°33'0 0.0
2016-Jul-07 00:31N 37°57' E 023°33'0 0.0
2016-Jul-06 23:31N 37°57' E 023°33'0 0.0
2016-Jul-06 22:31N 37°57' E 023°33'0 0.0
2016-Jul-06 21:31N 37°57' E 023°33'0 0.0
2016-Jul-06 20:31N 37°57' E 023°33'0 0.0
2016-Jul-06 19:31N 37°57' E 023°33'0 0.0
2016-Jul-06 18:31N 37°57' E 023°33'0 0.0
2016-Jul-06 17:31N 37°57' E 023°33'0 0.0
2016-Jul-06 16:31N 37°57' E 023°33'0 0.0
2016-Jul-06 15:31N 37°57' E 023°33'0 0.0
2016-Jul-06 14:31N 37°57' E 023°33'0 0.0
2016-Jul-06 13:31N 37°57' E 023°33'0 0.0
2016-Jul-06 12:31N 37°57' E 023°33'0 0.0
2016-Jul-06 11:31N 37°57' E 023°33'0 0.0
2016-Jul-06 10:28N 37°57' E 023°33'0 0.0
2016-Jul-06 09:31N 37°57' E 023°33'0 0.0
2016-Jul-06 08:31N 37°57' E 023°33'0 0.0
2016-Jul-06 07:31N 37°57' E 023°33'0 0.0
2016-Jul-06 06:31N 37°57' E 023°33'0 0.0
2016-Jul-06 05:31N 37°57' E 023°33'0 0.0
2016-Jul-06 04:31N 37°57' E 023°33'0 0.0
2016-Jul-06 03:31N 37°57' E 023°33'0 0.0
2016-Jul-06 02:31N 37°57' E 023°33'0 0.0
2016-Jul-06 01:31N 37°57' E 023°33'0 0.0
2016-Jul-06 00:31N 37°57' E 023°33'0 0.0
2016-Jul-05 23:31N 37°57' E 023°33'0 0.0
2016-Jul-05 22:31N 37°57' E 023°33'0 0.0
2016-Jul-05 21:31N 37°57' E 023°33'0 0.0
2016-Jul-05 20:31N 37°57' E 023°33'0 0.0
2016-Jul-05 19:31N 37°57' E 023°33'0 0.0
2016-Jul-05 18:31N 37°57' E 023°33'0 0.0
2016-Jul-05 17:31N 37°57' E 023°33'0 0.0
2016-Jul-05 16:28N 37°57' E 023°33'0 0.0
2016-Jul-05 15:31N 37°57' E 023°33'0 0.0
2016-Jul-05 14:31N 37°57' E 023°33'0 0.0
2016-Jul-05 13:31N 37°57' E 023°33'0 0.0
2016-Jul-05 12:31N 37°57' E 023°33'0 0.0
2016-Jul-05 11:28N 37°57' E 023°33'0 0.0
2016-Jul-05 10:31N 37°57' E 023°33'0 0.0
2016-Jul-05 09:31N 37°57' E 023°33'0 0.0
2016-Jul-05 08:31N 37°57' E 023°33'0 0.0
2016-Jul-05 07:33N 37°57' E 023°33'1 1.2
2016-Jul-05 06:34N 37°57' E 023°34'3 1.5
2016-Jul-05 04:32N 37°54' E 023°34'0 0.0
2016-Jul-05 03:32N 37°54' E 023°34'0 0.0
2016-Jul-05 02:32N 37°54' E 023°34'0 0.0
2016-Jul-05 01:32N 37°54' E 023°34'0 0.0
2016-Jul-05 00:32N 37°54' E 023°34'0 0.0
2016-Jul-04 23:31N 37°54' E 023°34'0 0.0
2016-Jul-04 22:31N 37°54' E 023°34'0 0.0
2016-Jul-04 21:34N 37°54' E 023°34'0 0.0
2016-Jul-04 20:31N 37°54' E 023°34'0 0.0
2016-Jul-04 19:31N 37°54' E 023°34'0 0.0
2016-Jul-04 18:31N 37°54' E 023°34'0 0.0
2016-Jul-04 17:31N 37°54' E 023°34'0 0.0
2016-Jul-04 16:31N 37°54' E 023°34'0 0.0
2016-Jul-04 15:31N 37°54' E 023°34'0 0.0
2016-Jul-04 14:31N 37°54' E 023°34'0 0.0
2016-Jul-04 13:31N 37°54' E 023°34'0 0.0
2016-Jul-04 12:31N 37°54' E 023°34'0 0.0
2016-Jul-04 11:31N 37°54' E 023°34'0 0.0
2016-Jul-04 10:31N 37°54' E 023°34'0 0.0
2016-Jul-04 09:28N 37°54' E 023°34'0 0.0
2016-Jul-04 08:10N 37°54' E 023°34'0 0.0
2016-Jul-04 06:16N 37°54' E 023°34'0 0.0
2016-Jul-04 05:31N 37°54' E 023°34'0 0.0
2016-Jul-04 04:31N 37°54' E 023°34'0 0.0
2016-Jul-04 03:31N 37°54' E 023°34'0 0.0
2016-Jul-04 02:31N 37°54' E 023°34'0 0.0
2016-Jul-04 01:31N 37°54' E 023°34'0 0.0
2016-Jul-04 00:31N 37°54' E 023°34'0 0.0
2016-Jul-03 23:31N 37°54' E 023°34'0 0.0
2016-Jul-03 22:32N 37°54' E 023°34'0 0.0
2016-Jul-03 21:32N 37°54' E 023°34'0 0.1
2016-Jul-03 20:32N 37°54' E 023°34'0 0.0
2016-Jul-03 19:32N 37°54' E 023°34'0 0.0
2016-Jul-03 18:32N 37°54' E 023°34'0 0.0
2016-Jul-03 17:32N 37°54' E 023°34'0 0.0
2016-Jul-03 16:32N 37°54' E 023°34'0 0.0
2016-Jul-03 15:32N 37°54' E 023°34'0 0.0
2016-Jul-03 14:32N 37°54' E 023°34'0 0.0
2016-Jul-03 13:32N 37°54' E 023°34'0 0.0
2016-Jul-03 12:32N 37°54' E 023°34'0 0.1
2016-Jul-03 11:32N 37°54' E 023°34'  

Dump ship's entire track history